Terminal Aerodrome Forecast
Issued by NWS Sterling, VA

Current Version | Previous Version | Graphics & Text | Print | Product List | Glossary On
Versions: 1 2 3 4 5 6 7 8 9 10 11 12 13 14 15 16 17 18 19 20 21 22 23 24 25
000
FTUS41 KLWX 061133
TAFDCA
TAF
KDCA 061133Z 0612/0712 VRB03KT 6SM -RAPL SCT008 OVC050
     FM061600 09007KT 5SM -RA BR BKN008 OVC050
     FM062100 VRB04KT 5SM -RA BR BKN004 OVC008
     FM070600 VRB04KT 6SM BR BKN008 OVC015
     FM070900 VRB04KT P6SM BKN025=

USA.gov is the U.S. government's official web portal to all federal, state and local government web resources and services.